Time;durP1;ratioP1;P1;durP2;ratioP2;P2;SDS_P1;SDS_P2;PMS_P1;PMS_P2;Temp;Humidity;BMP_temperature;BMP_pressure;BME280_temperature;BME280_humidity;BME280_pressure;Samples;Min_cycle;Max_cycle;Signal;HPM_P1;HPM_P2
2023/03/05 00:02:21;;;;;;;;;;;3.50;99.90;;;;;;5073309;28;19986;-68
2023/03/05 00:04:47;;;;;;;;;;;;;;;;;;5065672;28;20294;-69
2023/03/05 00:07:13;;;;;;;;;;;3.50;99.90;;;;;;5063582;28;19921;-68
2023/03/05 00:09:39;;;;;;;;;;;;;;;;;;5063073;28;19928;-68
2023/03/05 00:12:05;;;;;;;;;;;;;;;;;;5067578;28;20435;-67
2023/03/05 00:14:31;;;;;;;;;;;;;;;;;;5071571;28;20455;-67
2023/03/05 00:16:57;;;;;;;;;;;;;;;;;;5069937;28;19921;-67
2023/03/05 00:19:22;;;;;;;;;;;3.50;99.90;;;;;;5069256;28;19974;-67
2023/03/05 00:21:48;;;;;;;;;;;;;;;;;;5070092;28;19924;-67
2023/03/05 00:24:15;;;;;;;;;;;;;;;;;;5071040;28;20324;-68
2023/03/05 00:26:43;;;;;;;;;;;3.50;99.90;;;;;;5071277;28;21451;-68
2023/03/05 00:29:10;;;;;;;;;;;3.60;99.90;;;;;;5066016;28;19925;-67
2023/03/05 00:31:38;;;;;;;;;;;;;;;;;;5067219;28;19921;-67
2023/03/05 00:34:04;;;;;;;;;;;;;;;;;;5067924;28;19970;-67
2023/03/05 00:36:30;;;;;;;;;;;3.70;99.90;;;;;;5072318;28;20608;-67
2023/03/05 00:38:56;;;;;;;;;;;;;;;;;;5070404;28;19921;-67
2023/03/05 00:41:21;;;;;;;;;;;2.80;99.90;;;;;;5046342;28;19920;-67
2023/03/05 00:43:47;;;;;;;;;;;2.70;99.90;;;;;;5068798;28;19970;-67
2023/03/05 00:46:13;;;;;;;;;;;;;;;;;;5072547;28;20426;-68
2023/03/05 00:48:39;;;;;;;;;;;;;;;;;;5071698;28;19924;-67
2023/03/05 00:51:05;;;;;;;;;;;;;;;;;;5067831;28;19928;-67
2023/03/05 00:53:30;;;;;;;;;;;3.70;99.90;;;;;;5066673;28;19921;-67
2023/03/05 00:55:56;;;;;;;;;;;;;;;;;;5067837;28;19943;-66
2023/03/05 00:58:22;;;;;;;;;;;4.10;99.90;;;;;;5053735;28;19921;-67
2023/03/05 01:00:51;;;;;;;;;;;;;;;;;;5071512;28;19921;-67
2023/03/05 01:03:17;;;;;;;;;;;3.20;99.90;;;;;;5050889;28;19927;-67
2023/03/05 01:05:43;;;;;;;;;;;2.80;99.90;;;;;;5068544;28;19931;-66
2023/03/05 01:08:08;;;;;;;;;;;3.00;99.90;;;;;;5036110;28;19928;-66
2023/03/05 01:10:34;;;;;;;;;;;;;;;;;;5053621;28;19967;-66
2023/03/05 01:13:00;;;;;;;;;;;;;;;;;;5069012;28;19927;-67
2023/03/05 01:15:26;;;;;;;;;;;;;;;;;;5070106;28;19921;-68
2023/03/05 01:17:52;;;;;;;;;;;;;;;;;;5070277;28;20011;-68
2023/03/05 01:20:18;;;;;;;;;;;3.50;99.90;;;;;;5066175;28;20094;-68
2023/03/05 01:22:44;;;;;;;;;;;3.70;99.90;;;;;;5053388;28;20308;-68
2023/03/05 01:25:11;;;;;;;;;;;3.80;99.90;;;;;;5057861;28;19921;-68
2023/03/05 01:27:37;;;;;;;;;;;;;;;;;;5071247;28;19920;-69
2023/03/05 01:30:03;;;;;;;;;;;3.50;99.90;;;;;;5067456;28;19925;-69
2023/03/05 01:32:29;;;;;;;;;;;;;;;;;;5070860;28;19920;-70
2023/03/05 01:34:54;;;;;;;;;;;3.60;99.90;;;;;;5043629;28;20436;-73
2023/03/05 01:37:20;;;;;;;;;;;;;;;;;;5067421;28;19927;-76
2023/03/05 01:39:46;;;;;;;;;;;;;;;;;;5052814;28;19920;-74
2023/03/05 01:42:12;;;;;;;;;;;;;;;;;;5049738;28;19920;-74
2023/03/05 01:44:38;;;;;;;;;;;;;;;;;;5053104;28;20015;-74
2023/03/05 01:47:03;;;;;;;;;;;3.40;99.90;;;;;;5068080;28;19962;-73
2023/03/05 01:49:37;;;;;;;;;;;3.60;99.90;;;;;;5030754;28;20381;-73
2023/03/05 01:52:03;;;;;;;;;;;;;;;;;;5066958;28;20312;-73
2023/03/05 01:54:30;;;;;;;;;;;;;;;;;;5052556;28;20039;-72
2023/03/05 01:56:56;;;;;;;;;;;;;;;;;;5066705;28;19924;-71
2023/03/05 01:59:22;;;;;;;;;;;2.70;99.90;;;;;;5070598;28;19928;-71
2023/03/05 02:01:48;;;;;;;;;;;;;;;;;;5070274;28;19921;-71
2023/03/05 02:04:14;;;;;;;;;;;;;;;;;;5052442;28;19920;-71
2023/03/05 02:06:40;;;;;;;;;;;;;;;;;;5047305;28;20412;-71
2023/03/05 02:09:06;;;;;;;;;;;;;;;;;;5062877;28;20007;-71
2023/03/05 02:11:32;;;;;;;;;;;;;;;;;;5035089;28;20024;-71
2023/03/05 02:13:58;;;;;;;;;;;;;;;;;;5052260;28;19921;-71
2023/03/05 02:16:23;;;;;;;;;;;;;;;;;;5065356;28;19927;-71
2023/03/05 02:18:49;;;;;;;;;;;3.30;1.00;;;;;;5044330;28;19921;-71
2023/03/05 02:21:25;;;;;;;;;;;3.00;1.00;;;;;;5051489;28;20432;-71
2023/03/05 02:23:51;;;;;;;;;;;2.50;1.00;;;;;;5031469;28;19927;-71
2023/03/05 02:26:17;;;;;;;;;;;;;;;;;;5068027;28;20019;-71
2023/03/05 02:28:43;;;;;;;;;;;;;;;;;;5052026;28;19975;-70
2023/03/05 02:31:09;;;;;;;;;;;;;;;;;;5052063;28;19921;-70
2023/03/05 02:33:35;;;;;;;;;;;;;;;;;;5039163;28;19927;-71
2023/03/05 02:36:01;;;;;;;;;;;;;;;;;;5041948;28;19920;-69
2023/03/05 02:38:26;;;;;;;;;;;3.40;1.00;;;;;;5069716;28;20125;-69
2023/03/05 02:40:52;;;;;;;;;;;;;;;;;;5069985;28;20412;-69
2023/03/05 02:43:18;;;;;;;;;;;2.40;1.00;;;;;;5069814;28;19921;-69
2023/03/05 02:45:44;;;;;;;;;;;;;;;;;;5068471;28;19928;-70
2023/03/05 02:48:10;;;;;;;;;;;;;;;;;;5047724;28;20389;-69
2023/03/05 02:50:35;;;;;;;;;;;3.20;1.00;;;;;;5052025;28;19927;-69
2023/03/05 02:53:01;;;;;;;;;;;;;;;;;;5032922;28;19920;-69
2023/03/05 02:55:27;;;;;;;;;;;2.70;1.00;;;;;;5048167;28;19921;-70
2023/03/05 02:57:53;;;;;;;;;;;;;;;;;;5065893;28;19928;-71
2023/03/05 03:00:18;;;;;;;;;;;;;;;;;;5046154;28;20306;-72
2023/03/05 03:02:44;;;;;;;;;;;;;;;;;;5049092;28;20389;-71
2023/03/05 03:05:10;;;;;;;;;;;;;;;;;;5051732;28;20382;-70
2023/03/05 03:07:36;;;;;;;;;;;2.80;1.00;;;;;;5055747;28;19920;-72
2023/03/05 03:10:02;;;;;;;;;;;3.10;1.00;;;;;;5052436;28;20309;-73
2023/03/05 03:12:28;;;;;;;;;;;;;;;;;;5056161;28;20377;-73
2023/03/05 03:14:54;;;;;;;;;;;2.50;1.00;;;;;;5055903;28;19935;-72
2023/03/05 03:17:20;;;;;;;;;;;;;;;;;;5055511;28;19930;-73
2023/03/05 03:19:46;;;;;;;;;;;;;;;;;;5050361;28;19920;-74
2023/03/05 03:22:11;;;;;;;;;;;;;;;;;;5071130;28;19982;-72
2023/03/05 03:24:37;;;;;;;;;;;;;;;;;;5072914;28;20373;-72
2023/03/05 03:27:03;;;;;;;;;;;3.00;1.00;;;;;;5052002;28;19959;-73
2023/03/05 03:29:29;;;;;;;;;;;;;;;;;;5070167;28;19924;-72
2023/03/05 03:31:54;;;;;;;;;;;2.30;1.00;;;;;;5050716;28;19967;-71
2023/03/05 03:34:20;;;;;;;;;;;;;;;;;;5035215;28;19921;-71
2023/03/05 03:36:46;;;;;;;;;;;;;;;;;;5046826;28;19920;-72
2023/03/05 03:39:13;;;;;;;;;;;2.20;1.00;;;;;;5055771;28;19920;-72
2023/03/05 03:41:39;;;;;;;;;;;;;;;;;;5037697;28;20003;-71
2023/03/05 03:44:07;;;;;;;;;;;;;;;;;;5053073;28;20442;-70
2023/03/05 03:46:33;;;;;;;;;;;;;;;;;;5073001;28;19920;-71
2023/03/05 03:48:59;;;;;;;;;;;;;;;;;;5054333;28;20009;-72
2023/03/05 03:51:25;;;;;;;;;;;;;;;;;;5062055;28;20420;-72
2023/03/05 03:53:50;;;;;;;;;;;3.40;1.00;;;;;;5048079;28;19920;-74
2023/03/05 03:56:16;;;;;;;;;;;3.20;1.00;;;;;;5073052;28;19928;-73
2023/03/05 03:58:42;;;;;;;;;;;;;;;;;;5072715;28;19974;-71
2023/03/05 04:01:08;;;;;;;;;;;;;;;;;;5072742;28;19978;-73
2023/03/05 04:03:33;;;;;;;;;;;3.10;1.00;;;;;;5064958;28;19998;-74
2023/03/05 04:05:59;;;;;;;;;;;;;;;;;;5072512;28;19924;-74
2023/03/05 04:08:25;;;;;;;;;;;;;;;;;;5051848;28;19928;-74
2023/03/05 04:10:51;;;;;;;;;;;;;;;;;;5048308;28;19986;-75
2023/03/05 04:13:17;;;;;;;;;;;;;;;;;;5051203;28;19924;-74
2023/03/05 04:15:43;;;;;;;;;;;;;;;;;;5035196;28;19920;-73
2023/03/05 04:18:09;;;;;;;;;;;;;;;;;;5071433;28;20011;-73
2023/03/05 04:20:35;;;;;;;;;;;;;;;;;;5051949;28;19921;-73
2023/03/05 04:23:01;;;;;;;;;;;;;;;;;;5072025;28;19944;-74
2023/03/05 04:25:27;;;;;;;;;;;;;;;;;;5034378;28;20398;-73
2023/03/05 04:27:52;;;;;;;;;;;;;;;;;;5067714;28;19924;-75
2023/03/05 04:30:18;;;;;;;;;;;;;;;;;;5054070;28;19926;-73
2023/03/05 04:32:44;;;;;;;;;;;;;;;;;;5054148;28;19931;-73
2023/03/05 04:35:10;;;;;;;;;;;;;;;;;;5070892;28;19920;-73
2023/03/05 04:37:36;;;;;;;;;;;;;;;;;;5063135;28;19920;-73
2023/03/05 04:40:03;;;;;;;;;;;;;;;;;;5057405;28;19931;-73
2023/03/05 04:42:29;;;;;;;;;;;;;;;;;;5054349;28;19921;-73
2023/03/05 04:44:55;;;;;;;;;;;;;;;;;;5053825;28;19947;-73
2023/03/05 04:47:20;;;;;;;;;;;;;;;;;;5049134;28;20386;-73
2023/03/05 04:49:46;;;;;;;;;;;;;;;;;;5053375;28;20011;-72
2023/03/05 04:52:12;;;;;;;;;;;;;;;;;;5054000;28;19999;-72
2023/03/05 04:54:38;;;;;;;;;;;;;;;;;;5052721;28;20007;-72
2023/03/05 04:57:04;;;;;;;;;;;;;;;;;;5070868;28;20011;-73
2023/03/05 04:59:30;;;;;;;;;;;2.70;29.20;;;;;;5052060;28;19924;-73
2023/03/05 05:01:56;;;;;;;;;;;;;;;;;;5071549;28;19926;-73
2023/03/05 05:04:22;;;;;;;;;;;;;;;;;;5071956;28;19970;-73
2023/03/05 05:06:48;;;;;;;;;;;;;;;;;;5071245;28;19921;-73
2023/03/05 05:09:14;;;;;;;;;;;;;;;;;;5069862;28;20613;-73
2023/03/05 05:11:39;;;;;;;;;;;;;;;;;;5064550;28;19932;-74
2023/03/05 05:14:06;;;;;;;;;;;;;;;;;;5053248;28;19920;-73
2023/03/05 05:16:32;;;;;;;;;;;;;;;;;;5069214;28;19982;-73
2023/03/05 05:18:57;;;;;;;;;;;;;;;;;;5071183;28;19978;-73
2023/03/05 05:21:23;;;;;;;;;;;;;;;;;;5046957;28;20020;-73
2023/03/05 05:23:49;;;;;;;;;;;2.40;1.00;;;;;;5049946;28;19956;-73
2023/03/05 05:26:15;;;;;;;;;;;;;;;;;;5071438;28;20333;-73
2023/03/05 05:28:42;;;;;;;;;;;;;;;;;;5052203;28;20017;-73
2023/03/05 05:31:08;;;;;;;;;;;;;;;;;;5046855;28;19920;-73
2023/03/05 05:33:34;;;;;;;;;;;;;;;;;;5047171;28;19924;-73
2023/03/05 05:35:59;;;;;;;;;;;;;;;;;;5064900;28;20341;-75
2023/03/05 05:38:25;;;;;;;;;;;;;;;;;;5070477;28;19920;-73
2023/03/05 05:40:51;;;;;;;;;;;2.40;1.00;;;;;;5070911;28;19928;-73
2023/03/05 05:43:17;;;;;;;;;;;;;;;;;;5069873;28;19927;-75
2023/03/05 05:45:42;;;;;;;;;;;2.80;1.00;;;;;;5052970;28;19926;-73
2023/03/05 05:48:08;;;;;;;;;;;;;;;;;;5070556;28;20007;-75
2023/03/05 05:50:34;;;;;;;;;;;;;;;;;;5053059;28;19959;-74
2023/03/05 05:53:00;;;;;;;;;;;;;;;;;;5047546;28;20353;-73
2023/03/05 05:55:26;;;;;;;;;;;2.20;1.00;;;;;;5071130;28;19927;-73
2023/03/05 05:57:52;;;;;;;;;;;;;;;;;;5052792;28;19920;-73
2023/03/05 06:00:17;;;;;;;;;;;2.50;1.00;;;;;;5052770;28;19967;-73
2023/03/05 06:02:43;;;;;;;;;;;;;;;;;;5070880;28;19943;-73
2023/03/05 06:05:09;;;;;;;;;;;;;;;;;;5060262;28;19921;-73
2023/03/05 06:07:35;;;;;;;;;;;;;;;;;;5050596;28;20542;-72
2023/03/05 06:10:02;;;;;;;;;;;;;;;;;;5067540;28;19932;-71
2023/03/05 06:12:27;;;;;;;;;;;;;;;;;;5046612;28;20311;-72
2023/03/05 06:14:53;;;;;;;;;;;;;;;;;;5067327;28;19949;-73
2023/03/05 06:17:19;;;;;;;;;;;;;;;;;;5064430;28;20282;-73
2023/03/05 06:19:45;;;;;;;;;;;;;;;;;;5050350;28;20433;-73
2023/03/05 06:22:11;;;;;;;;;;;2.60;1.00;;;;;;5048523;28;20066;-73
2023/03/05 06:24:37;;;;;;;;;;;;;;;;;;5068388;28;19921;-73
2023/03/05 06:27:03;;;;;;;;;;;;;;;;;;5035723;28;20271;-73
2023/03/05 06:29:29;;;;;;;;;;;;;;;;;;5070093;28;19931;-73
2023/03/05 06:31:55;;;;;;;;;;;;;;;;;;5064474;28;20308;-70
2023/03/05 06:34:21;;;;;;;;;;;;;;;;;;5067233;28;19920;-70
2023/03/05 06:36:47;;;;;;;;;;;;;;;;;;5069997;28;19974;-70
2023/03/05 06:39:12;;;;;;;;;;;1.90;1.00;;;;;;5070101;28;20355;-69
2023/03/05 06:41:38;;;;;;;;;;;2.60;1.00;;;;;;5069263;28;19975;-70
2023/03/05 06:44:04;;;;;;;;;;;;;;;;;;5068290;28;19977;-71
2023/03/05 06:46:30;;;;;;;;;;;;;;;;;;5070036;28;19966;-70
2023/03/05 06:48:56;;;;;;;;;;;;;;;;;;5069328;28;19924;-70
2023/03/05 06:51:23;;;;;;;;;;;2.40;7.60;;;;;;5069841;28;20007;-72
2023/03/05 06:53:49;;;;;;;;;;;2.60;1.00;;;;;;5034548;28;19932;-72
2023/03/05 06:56:15;;;;;;;;;;;2.40;1.00;;;;;;5069696;28;19921;-72
2023/03/05 06:58:41;;;;;;;;;;;2.20;1.00;;;;;;5066058;28;20007;-72
2023/03/05 07:01:07;;;;;;;;;;;;;;;;;;5052029;28;20449;-71
2023/03/05 07:03:33;;;;;;;;;;;;;;;;;;5052196;28;20317;-73
2023/03/05 07:06:03;;;;;;;;;;;2.90;1.00;;;;;;5048043;28;19920;-72
2023/03/05 07:08:29;;;;;;;;;;;;;;;;;;5027701;28;19920;-71
2023/03/05 07:10:55;;;;;;;;;;;;;;;;;;5067548;28;20365;-71
2023/03/05 07:13:21;;;;;;;;;;;;;;;;;;5069648;28;20145;-72
2023/03/05 07:15:47;;;;;;;;;;;;;;;;;;5050648;28;20019;-72
2023/03/05 07:18:13;;;;;;;;;;;;;;;;;;5047311;28;19920;-73
2023/03/05 07:20:39;;;;;;;;;;;;;;;;;;5045317;28;19925;-71
2023/03/05 07:23:04;;;;;;;;;;;2.60;1.00;;;;;;5047826;28;20263;-70
2023/03/05 07:25:30;;;;;;;;;;;;;;;;;;5061877;28;19920;-71
2023/03/05 07:27:56;;;;;;;;;;;;;;;;;;5042039;28;19928;-71
2023/03/05 07:30:22;;;;;;;;;;;;;;;;;;5064185;28;19930;-71
2023/03/05 07:32:48;;;;;;;;;;;;;;;;;;5066902;28;20185;-72
2023/03/05 07:35:14;;;;;;;;;;;2.80;1.00;;;;;;5051477;28;19928;-71
2023/03/05 07:37:40;;;;;;;;;;;2.70;1.00;;;;;;5069562;28;19974;-73
2023/03/05 07:40:06;;;;;;;;;;;3.10;1.00;;;;;;5027252;28;19963;-71
2023/03/05 07:42:32;;;;;;;;;;;;;;;;;;5051591;28;19940;-71
2023/03/05 07:44:58;;;;;;;;;;;;;;;;;;5051139;28;19932;-70
2023/03/05 07:47:24;;;;;;;;;;;;;;;;;;5069334;28;19920;-70
2023/03/05 07:49:50;;;;;;;;;;;;;;;;;;5046957;28;19986;-70
2023/03/05 07:52:16;;;;;;;;;;;;;;;;;;5037969;28;19921;-70
2023/03/05 07:54:42;;;;;;;;;;;;;;;;;;5052025;28;19920;-70
2023/03/05 07:57:07;;;;;;;;;;;;;;;;;;5067085;28;20417;-69
2023/03/05 07:59:33;;;;;;;;;;;3.70;1.00;;;;;;5072655;28;20029;-69
2023/03/05 08:01:59;;;;;;;;;;;;;;;;;;5072170;28;19959;-69
2023/03/05 08:04:25;;;;;;;;;;;;;;;;;;5072712;28;19924;-69
2023/03/05 08:06:51;;;;;;;;;;;;;;;;;;5042072;28;20302;-70
2023/03/05 08:09:17;;;;;;;;;;;;;;;;;;5062396;28;19925;-70
2023/03/05 08:11:43;;;;;;;;;;;;;;;;;;5058657;28;19977;-69
2023/03/05 08:14:09;;;;;;;;;;;;;;;;;;5040100;28;19927;-70
2023/03/05 08:16:35;;;;;;;;;;;;;;;;;;5054705;28;20211;-70
2023/03/05 08:19:00;;;;;;;;;;;4.00;99.90;;;;;;5071523;28;19925;-69
2023/03/05 08:21:28;;;;;;;;;;;;;;;;;;5049599;28;20330;-69
2023/03/05 08:23:54;;;;;;;;;;;;;;;;;;5045344;28;20400;-70
2023/03/05 08:26:19;;;;;;;;;;;;;;;;;;5045802;28;19978;-69
2023/03/05 08:28:45;;;;;;;;;;;;;;;;;;5042590;28;20435;-70
2023/03/05 08:31:11;;;;;;;;;;;;;;;;;;5068765;28;20057;-70
2023/03/05 08:33:37;;;;;;;;;;;5.30;99.90;;;;;;5072433;28;20185;-70
2023/03/05 08:36:03;;;;;;;;;;;5.00;99.90;;;;;;5037671;28;19938;-70
2023/03/05 08:38:29;;;;;;;;;;;5.20;99.90;;;;;;5072067;28;19921;-70
2023/03/05 08:40:55;;;;;;;;;;;;;;;;;;5072235;28;19951;-70
2023/03/05 08:43:21;;;;;;;;;;;;;;;;;;5054560;28;19920;-71
2023/03/05 08:45:48;;;;;;;;;;;;;;;;;;5071815;28;19921;-71
2023/03/05 08:48:14;;;;;;;;;;;;;;;;;;5064897;28;19955;-71
2023/03/05 08:50:40;;;;;;;;;;;;;;;;;;5063209;28;19925;-72
2023/03/05 08:53:06;;;;;;;;;;;;;;;;;;5052658;28;19921;-72
2023/03/05 08:55:32;;;;;;;;;;;;;;;;;;5056403;28;19935;-72
2023/03/05 08:57:58;;;;;;;;;;;;;;;;;;5055335;28;19928;-72
2023/03/05 09:00:23;;;;;;;;;;;;;;;;;;5053835;28;20260;-73
2023/03/05 09:02:50;;;;;;;;;;;;;;;;;;5054398;28;19924;-71
2023/03/05 09:05:17;;;;;;;;;;;;;;;;;;5054463;28;20405;-70
2023/03/05 09:07:43;;;;;;;;;;;;;;;;;;5058858;28;19967;-70
2023/03/05 09:10:11;;;;;;;;;;;;;;;;;;5064000;28;19960;-70
2023/03/05 09:12:37;;;;;;;;;;;;;;;;;;5071756;28;19920;-68
2023/03/05 09:15:03;;;;;;;;;;;;;;;;;;5071414;28;20374;-68
2023/03/05 09:17:29;;;;;;;;;;;;;;;;;;5071553;28;20338;-69
2023/03/05 09:19:55;;;;;;;;;;;;;;;;;;5069446;28;20465;-69
2023/03/05 09:22:21;;;;;;;;;;;;;;;;;;5056357;28;19993;-69
2023/03/05 09:24:47;;;;;;;;;;;;;;;;;;5056518;28;19975;-69
2023/03/05 09:27:12;;;;;;;;;;;5.30;99.90;;;;;;5057543;28;20034;-69
2023/03/05 09:29:38;;;;;;;;;;;;;;;;;;5040662;28;20409;-69
2023/03/05 09:32:04;;;;;;;;;;;;;;;;;;5056108;28;19924;-70
2023/03/05 09:34:30;;;;;;;;;;;;;;;;;;5054603;28;19968;-70
2023/03/05 09:36:56;;;;;;;;;;;;;;;;;;5057385;28;20252;-70
2023/03/05 09:39:21;;;;;;;;;;;6.20;99.90;;;;;;5054439;28;19973;-70
2023/03/05 09:41:47;;;;;;;;;;;;;;;;;;5040017;28;19999;-70
2023/03/05 09:44:27;;;;;;;;;;;6.50;99.90;;;;;;5054458;28;20007;-70
2023/03/05 09:46:53;;;;;;;;;;;;;;;;;;5055215;28;19928;-69
2023/03/05 09:49:29;;;;;;;;;;;6.00;99.90;;;;;;5058180;28;20290;-68
2023/03/05 09:51:55;;;;;;;;;;;;;;;;;;5070549;28;20309;-69
2023/03/05 09:54:21;;;;;;;;;;;;;;;;;;5062865;28;20004;-69
2023/03/05 09:56:47;;;;;;;;;;;;;;;;;;5040155;28;19920;-68
2023/03/05 09:59:16;;;;;;;;;;;6.20;99.90;;;;;;5063007;28;19932;-69
2023/03/05 10:01:42;;;;;;;;;;;;;;;;;;5070321;28;19928;-68
2023/03/05 10:04:08;;;;;;;;;;;;;;;;;;5069928;28;19920;-69
2023/03/05 10:06:35;;;;;;;;;;;;;;;;;;5070136;28;19968;-68
2023/03/05 10:09:07;;;;;;;;;;;6.00;99.90;;;;;;5049940;28;20011;-68
2023/03/05 10:11:44;;;;;;;;;;;5.60;99.90;;;;;;5063534;28;19921;-69
2023/03/05 10:14:14;;;;;;;;;;;6.50;99.90;;;;;;5069773;28;19920;-69
2023/03/05 10:16:40;;;;;;;;;;;;;;;;;;5030613;28;19921;-68
2023/03/05 10:19:05;;;;;;;;;;;;;;;;;;5058548;28;19920;-69
2023/03/05 10:21:46;;;;;;;;;;;6.90;99.90;;;;;;5061882;28;20296;-68
2023/03/05 10:24:12;;;;;;;;;;;;;;;;;;5042184;28;19921;-69
2023/03/05 10:26:38;;;;;;;;;;;;;;;;;;5066152;28;19920;-69
2023/03/05 10:29:24;;;;;;;;;;;7.30;99.90;;;;;;5064579;28;19929;-69
2023/03/05 10:31:50;;;;;;;;;;;;;;;;;;5038239;28;20381;-68
2023/03/05 10:34:20;;;;;;;;;;;;;;;;;;5033246;28;20075;-69
2023/03/05 10:36:46;;;;;;;;;;;;;;;;;;5040591;28;20446;-69
2023/03/05 10:39:12;;;;;;;;;;;;;;;;;;5064697;28;19928;-68
2023/03/05 10:41:38;;;;;;;;;;;;;;;;;;5049802;28;19970;-68
2023/03/05 10:44:08;;;;;;;;;;;7.50;99.90;;;;;;5067987;28;19920;-69
2023/03/05 10:46:34;;;;;;;;;;;;;;;;;;5060611;28;19932;-69
2023/03/05 10:49:00;;;;;;;;;;;;;;;;;;5041315;28;19924;-70
2023/03/05 10:51:26;;;;;;;;;;;;;;;;;;5051746;28;19928;-69
2023/03/05 10:53:52;;;;;;;;;;;;;;;;;;5069399;28;20278;-69
2023/03/05 10:56:18;;;;;;;;;;;;;;;;;;5069488;28;20405;-69
2023/03/05 10:58:44;;;;;;;;;;;6.90;99.90;;;;;;5049538;28;19924;-69
2023/03/05 11:01:09;;;;;;;;;;;;;;;;;;5073555;28;20297;-69
2023/03/05 11:03:35;;;;;;;;;;;;;;;;;;5031877;28;19924;-69
2023/03/05 11:06:01;;;;;;;;;;;;;;;;;;5068760;28;19920;-70
2023/03/05 11:08:27;;;;;;;;;;;;;;;;;;5066198;28;19936;-69
2023/03/05 11:10:54;;;;;;;;;;;;;;;;;;5066245;28;19979;-69
2023/03/05 11:13:20;;;;;;;;;;;;;;;;;;5059540;28;19963;-69
2023/03/05 11:15:46;;;;;;;;;;;;;;;;;;5051339;28;20366;-69
2023/03/05 11:18:12;;;;;;;;;;;;;;;;;;5068906;28;20365;-69
2023/03/05 11:20:38;;;;;;;;;;;;;;;;;;5057722;28;19928;-70
2023/03/05 11:23:04;;;;;;;;;;;;;;;;;;5065761;28;19925;-70
2023/03/05 11:25:31;;;;;;;;;;;;;;;;;;5069541;28;19921;-69
2023/03/05 11:27:56;;;;;;;;;;;;;;;;;;5062708;28;19928;-69
2023/03/05 11:30:22;;;;;;;;;;;;;;;;;;5044057;28;19929;-69
2023/03/05 11:32:48;;;;;;;;;;;;;;;;;;5050184;28;20387;-70
2023/03/05 11:35:14;;;;;;;;;;;;;;;;;;5071001;28;19967;-70
2023/03/05 11:37:40;;;;;;;;;;;;;;;;;;5051579;28;19960;-69
2023/03/05 11:40:09;;;;;;;;;;;8.30;99.90;;;;;;5047748;28;19944;-69
2023/03/05 11:42:37;;;;;;;;;;;8.50;1.00;;;;;;5064154;28;19967;-69
2023/03/05 11:45:03;;;;;;;;;;;;;;;;;;5058694;28;20264;-70
2023/03/05 11:47:29;;;;;;;;;;;;;;;;;;5034461;28;19946;-69
2023/03/05 11:49:59;;;;;;;;;;;8.20;99.90;;;;;;5063727;28;19928;-69
2023/03/05 11:52:25;;;;;;;;;;;;;;;;;;5064466;28;19928;-69
2023/03/05 11:54:51;;;;;;;;;;;;;;;;;;5070332;28;19924;-69
2023/03/05 11:57:19;;;;;;;;;;;7.70;99.90;;;;;;5053675;28;20286;-68
2023/03/05 11:59:44;;;;;;;;;;;;;;;;;;5060512;28;20019;-69
2023/03/05 12:02:10;;;;;;;;;;;;;;;;;;5035015;28;20461;-69
2023/03/05 12:04:36;;;;;;;;;;;;;;;;;;5045307;28;19921;-69
2023/03/05 12:07:02;;;;;;;;;;;10.30;54.40;;;;;;5068238;28;19924;-68
2023/03/05 12:09:28;;;;;;;;;;;;;;;;;;5076220;28;19925;-69
2023/03/05 12:11:54;;;;;;;;;;;;;;;;;;5069954;28;19931;-69
2023/03/05 12:14:32;;;;;;;;;;;11.30;44.30;;;;;;5060762;28;19928;-69
2023/03/05 12:16:57;;;;;;;;;;;;;;;;;;5068559;28;20007;-68
2023/03/05 12:19:24;;;;;;;;;;;;;;;;;;5063531;28;19999;-69
2023/03/05 12:21:49;;;;;;;;;;;;;;;;;;5067313;28;19920;-68
2023/03/05 12:24:15;;;;;;;;;;;;;;;;;;5065724;28;20239;-68
2023/03/05 12:26:55;;;;;;;;;;;11.50;41.80;;;;;;5070365;28;20041;-67
2023/03/05 12:29:21;;;;;;;;;;;;;;;;;;5066806;28;19924;-68
2023/03/05 12:31:47;;;;;;;;;;;;;;;;;;5070021;28;19920;-66
2023/03/05 12:34:13;;;;;;;;;;;;;;;;;;5068626;28;20235;-66
2023/03/05 12:36:39;;;;;;;;;;;;;;;;;;5052569;28;19921;-67
2023/03/05 12:39:06;;;;;;;;;;;;;;;;;;5036230;28;20011;-66
2023/03/05 12:41:36;;;;;;;;;;;;;;;;;;5061512;28;19924;-68
2023/03/05 12:44:02;;;;;;;;;;;;;;;;;;5052201;28;20355;-67
2023/03/05 12:46:28;;;;;;;;;;;10.80;38.10;;;;;;5042914;28;19946;-66
2023/03/05 12:48:54;;;;;;;;;;;;;;;;;;5045775;28;19974;-66
2023/03/05 12:51:20;;;;;;;;;;;;;;;;;;5061278;28;19929;-66
2023/03/05 12:53:45;;;;;;;;;;;;;;;;;;5071387;28;19965;-66
2023/03/05 12:56:11;;;;;;;;;;;;;;;;;;5053486;28;20375;-66
2023/03/05 12:58:37;;;;;;;;;;;;;;;;;;5062896;28;20003;-67
2023/03/05 13:01:03;;;;;;;;;;;;;;;;;;5052593;28;20374;-67
2023/03/05 13:03:34;;;;;;;;;;;8.70;35.60;;;;;;5052252;28;19927;-66
2023/03/05 13:06:03;;;;;;;;;;;;;;;;;;5053630;28;19927;-66
2023/03/05 13:08:36;;;;;;;;;;;7.30;36.50;;;;;;5033970;28;19944;-66
2023/03/05 13:11:02;;;;;;;;;;;;;;;;;;5046296;28;19932;-66
2023/03/05 13:13:29;;;;;;;;;;;7.90;49.80;;;;;;5063632;28;19944;-66
2023/03/05 13:15:55;;;;;;;;;;;;;;;;;;5049129;28;20059;-66
2023/03/05 13:18:25;;;;;;;;;;;7.80;51.60;;;;;;5069773;28;20449;-66
2023/03/05 13:20:55;;;;;;;;;;;;;;;;;;5071059;28;19920;-66
2023/03/05 13:23:21;;;;;;;;;;;;;;;;;;5053028;28;20270;-65
2023/03/05 13:25:47;;;;;;;;;;;;;;;;;;5070883;28;19920;-65
2023/03/05 13:28:14;;;;;;;;;;;8.90;55.90;;;;;;5052809;28;19927;-65
2023/03/05 13:30:40;;;;;;;;;;;;;;;;;;5070866;28;20394;-66
2023/03/05 13:33:06;;;;;;;;;;;;;;;;;;5070133;28;19974;-66
2023/03/05 13:35:31;;;;;;;;;;;;;;;;;;5069476;28;19920;-66
2023/03/05 13:37:57;;;;;;;;;;;12.90;38.40;;;;;;5064065;28;19928;-66
2023/03/05 13:40:23;;;;;;;;;;;;;;;;;;5069671;28;19921;-66
2023/03/05 13:42:49;;;;;;;;;;;;;;;;;;5051982;28;19929;-66
2023/03/05 13:45:28;;;;;;;;;;;12.20;27.50;;;;;;5069006;28;19977;-66
2023/03/05 13:47:54;;;;;;;;;;;;;;;;;;5043091;28;19943;-66
2023/03/05 13:50:20;;;;;;;;;;;;;;;;;;5069101;28;19928;-66
2023/03/05 13:52:45;;;;;;;;;;;;;;;;;;5052008;28;19927;-66
2023/03/05 13:55:11;;;;;;;;;;;;;;;;;;5065295;28;20437;-66
2023/03/05 13:57:37;;;;;;;;;;;;;;;;;;5051313;28;20602;-66
2023/03/05 14:00:03;;;;;;;;;;;;;;;;;;5038339;28;20425;-67
2023/03/05 14:02:29;;;;;;;;;;;;;;;;;;5056103;28;20514;-66
2023/03/05 14:04:55;;;;;;;;;;;;;;;;;;5028269;28;20165;-67
2023/03/05 14:07:25;;;;;;;;;;;10.30;40.90;;;;;;5061165;28;20330;-67
2023/03/05 14:09:51;;;;;;;;;;;;;;;;;;5060395;28;20405;-65
2023/03/05 14:12:32;;;;;;;;;;;9.50;46.00;;;;;;5029970;28;19927;-65
2023/03/05 14:14:58;;;;;;;;;;;;;;;;;;5044650;28;20007;-66
2023/03/05 14:17:24;;;;;;;;;;;;;;;;;;5057563;28;20062;-66
2023/03/05 14:19:49;;;;;;;;;;;10.40;39.80;;;;;;5062828;28;19920;-67
2023/03/05 14:22:15;;;;;;;;;;;;;;;;;;5064894;28;19928;-69
2023/03/05 14:24:41;;;;;;;;;;;;;;;;;;5061579;28;19921;-69
2023/03/05 14:27:12;;;;;;;;;;;;;;;;;;5063956;28;20282;-69
2023/03/05 14:29:38;;;;;;;;;;;;;;;;;;5043417;28;19925;-69
2023/03/05 14:32:06;;;;;;;;;;;12.10;28.80;;;;;;5062420;28;20421;-68
2023/03/05 14:34:32;;;;;;;;;;;;;;;;;;5066999;28;19920;-69
2023/03/05 14:36:57;;;;;;;;;;;;;;;;;;5036984;28;19939;-68
2023/03/05 14:39:23;;;;;;;;;;;;;;;;;;5062358;28;19928;-68
2023/03/05 14:41:49;;;;;;;;;;;13.20;18.40;;;;;;5049906;28;19925;-67
2023/03/05 14:44:15;;;;;;;;;;;13.80;13.20;;;;;;5038945;28;19921;-67
2023/03/05 14:46:42;;;;;;;;;;;13.90;17.90;;;;;;5037423;28;19921;-67
2023/03/05 14:49:08;;;;;;;;;;;;;;;;;;5048962;28;19974;-67
2023/03/05 14:51:38;;;;;;;;;;;11.90;26.00;;;;;;5058640;28;19920;-67
2023/03/05 14:54:04;;;;;;;;;;;;;;;;;;5065389;28;19963;-65
2023/03/05 14:56:30;;;;;;;;;;;13.30;19.70;;;;;;5064866;28;20448;-64
2023/03/05 14:58:58;;;;;;;;;;;12.40;16.70;;;;;;5045561;28;19920;-64
2023/03/05 15:01:24;;;;;;;;;;;;;;;;;;5061570;28;20376;-65
2023/03/05 15:03:51;;;;;;;;;;;11.80;24.10;;;;;;5068281;28;19924;-65
2023/03/05 15:06:19;;;;;;;;;;;10.70;19.30;;;;;;5055765;28;19943;-64
2023/03/05 15:08:45;;;;;;;;;;;;;;;;;;5067512;28;19937;-65
2023/03/05 15:11:11;;;;;;;;;;;;;;;;;;5069942;28;20317;-57
2023/03/05 15:13:36;;;;;;;;;;;10.30;25.20;;;;;;5070708;28;19925;-59
2023/03/05 15:16:02;;;;;;;;;;;;;;;;;;5062933;28;19921;-60
2023/03/05 15:18:28;;;;;;;;;;;;;;;;;;5070512;28;19920;-59
2023/03/05 15:20:55;;;;;;;;;;;;;;;;;;5059915;28;19977;-60
2023/03/05 15:23:21;;;;;;;;;;;8.50;14.70;;;;;;5068351;28;20568;-57
2023/03/05 15:25:47;;;;;;;;;;;;;;;;;;5072957;28;20076;-59
2023/03/05 15:28:13;;;;;;;;;;;10.60;10.50;;;;;;5071422;28;19941;-60
2023/03/05 15:30:39;;;;;;;;;;;;;;;;;;5038428;28;19961;-59
2023/03/05 15:33:05;;;;;;;;;;;;;;;;;;5054925;28;19924;-59
2023/03/05 15:35:31;;;;;;;;;;;;;;;;;;5061884;28;19928;-59
2023/03/05 15:37:57;;;;;;;;;;;;;;;;;;5055243;28;19935;-59
2023/03/05 15:40:22;;;;;;;;;;;12.30;7.60;;;;;;5057902;28;19920;-62
2023/03/05 15:42:48;;;;;;;;;;;;;;;;;;5072531;28;20475;-60
2023/03/05 15:45:14;;;;;;;;;;;11.90;14.60;;;;;;5068901;28;19928;-60
2023/03/05 15:47:40;;;;;;;;;;;;;;;;;;5069184;28;19966;-61
2023/03/05 15:50:06;;;;;;;;;;;;;;;;;;5050776;28;19925;-61
2023/03/05 15:52:32;;;;;;;;;;;;;;;;;;5068963;28;20612;-59
2023/03/05 15:54:58;;;;;;;;;;;;;;;;;;5052330;28;19920;-59
2023/03/05 15:57:24;;;;;;;;;;;;;;;;;;5069339;28;19924;-58
2023/03/05 15:59:50;;;;;;;;;;;9.50;16.80;;;;;;5072495;28;19928;-58